sensor_id;sensor_type;location;lat;lon;timestamp;P1;durP1;ratioP1;P2;durP2;ratioP2
84371;SDS011;74561;50.380;7.626;2024-03-22T00:00:04;16.50;;;8.00;;
84371;SDS011;74561;50.380;7.626;2024-03-22T00:02:30;14.52;;;6.97;;
84371;SDS011;74561;50.380;7.626;2024-03-22T00:04:55;15.27;;;8.38;;
84371;SDS011;74561;50.380;7.626;2024-03-22T00:07:22;17.50;;;8.20;;
84371;SDS011;74561;50.380;7.626;2024-03-22T00:09:50;17.23;;;8.55;;
84371;SDS011;74561;50.380;7.626;2024-03-22T00:12:15;18.47;;;8.43;;
84371;SDS011;74561;50.380;7.626;2024-03-22T00:14:40;17.27;;;9.23;;
84371;SDS011;74561;50.380;7.626;2024-03-22T00:17:06;15.50;;;8.10;;
84371;SDS011;74561;50.380;7.626;2024-03-22T00:19:31;17.00;;;8.80;;
84371;SDS011;74561;50.380;7.626;2024-03-22T00:21:56;16.73;;;8.80;;
84371;SDS011;74561;50.380;7.626;2024-03-22T00:24:22;16.95;;;8.73;;
84371;SDS011;74561;50.380;7.626;2024-03-22T00:26:47;18.40;;;9.23;;
84371;SDS011;74561;50.380;7.626;2024-03-22T00:29:12;19.73;;;8.90;;
84371;SDS011;74561;50.380;7.626;2024-03-22T00:31:38;24.23;;;9.73;;
84371;SDS011;74561;50.380;7.626;2024-03-22T00:34:03;19.00;;;8.97;;
84371;SDS011;74561;50.380;7.626;2024-03-22T00:36:28;17.53;;;9.27;;
84371;SDS011;74561;50.380;7.626;2024-03-22T00:38:54;21.17;;;11.07;;
84371;SDS011;74561;50.380;7.626;2024-03-22T00:41:19;19.90;;;9.53;;
84371;SDS011;74561;50.380;7.626;2024-03-22T00:43:44;17.30;;;9.03;;
84371;SDS011;74561;50.380;7.626;2024-03-22T00:46:10;17.85;;;8.85;;
84371;SDS011;74561;50.380;7.626;2024-03-22T00:48:35;16.73;;;8.60;;
84371;SDS011;74561;50.380;7.626;2024-03-22T00:51:01;19.38;;;9.30;;
84371;SDS011;74561;50.380;7.626;2024-03-22T00:53:26;22.87;;;9.00;;
84371;SDS011;74561;50.380;7.626;2024-03-22T00:55:51;17.67;;;9.10;;
84371;SDS011;74561;50.380;7.626;2024-03-22T00:58:18;19.47;;;9.07;;
84371;SDS011;74561;50.380;7.626;2024-03-22T01:00:44;21.30;;;10.63;;
84371;SDS011;74561;50.380;7.626;2024-03-22T01:03:09;20.58;;;9.82;;
84371;SDS011;74561;50.380;7.626;2024-03-22T01:05:35;18.45;;;9.38;;
84371;SDS011;74561;50.380;7.626;2024-03-22T01:08:01;18.45;;;9.50;;
84371;SDS011;74561;50.380;7.626;2024-03-22T01:10:26;19.70;;;8.47;;
84371;SDS011;74561;50.380;7.626;2024-03-22T01:12:52;17.85;;;8.85;;
84371;SDS011;74561;50.380;7.626;2024-03-22T01:15:17;20.03;;;9.67;;
84371;SDS011;74561;50.380;7.626;2024-03-22T01:17:42;17.83;;;9.93;;
84371;SDS011;74561;50.380;7.626;2024-03-22T01:20:08;19.30;;;10.60;;
84371;SDS011;74561;50.380;7.626;2024-03-22T01:22:34;18.10;;;9.32;;
84371;SDS011;74561;50.380;7.626;2024-03-22T01:24:59;20.50;;;9.90;;
84371;SDS011;74561;50.380;7.626;2024-03-22T01:27:24;18.20;;;9.50;;
84371;SDS011;74561;50.380;7.626;2024-03-22T01:29:50;18.13;;;8.83;;
84371;SDS011;74561;50.380;7.626;2024-03-22T01:32:15;19.20;;;8.63;;
84371;SDS011;74561;50.380;7.626;2024-03-22T01:34:40;22.00;;;9.33;;
84371;SDS011;74561;50.380;7.626;2024-03-22T01:37:06;17.53;;;7.90;;
84371;SDS011;74561;50.380;7.626;2024-03-22T01:39:31;19.83;;;8.88;;
84371;SDS011;74561;50.380;7.626;2024-03-22T01:41:56;20.40;;;8.60;;
84371;SDS011;74561;50.380;7.626;2024-03-22T01:44:28;18.67;;;9.40;;
84371;SDS011;74561;50.380;7.626;2024-03-22T01:46:54;17.42;;;8.73;;
84371;SDS011;74561;50.380;7.626;2024-03-22T01:49:21;17.30;;;7.78;;
84371;SDS011;74561;50.380;7.626;2024-03-22T01:51:47;18.88;;;8.25;;
84371;SDS011;74561;50.380;7.626;2024-03-22T01:54:12;16.10;;;7.80;;
84371;SDS011;74561;50.380;7.626;2024-03-22T01:56:38;18.30;;;9.15;;
84371;SDS011;74561;50.380;7.626;2024-03-22T01:59:07;16.65;;;8.40;;
84371;SDS011;74561;50.380;7.626;2024-03-22T02:01:32;17.83;;;8.57;;
84371;SDS011;74561;50.380;7.626;2024-03-22T02:03:58;17.35;;;7.75;;
84371;SDS011;74561;50.380;7.626;2024-03-22T02:06:23;18.15;;;8.35;;
84371;SDS011;74561;50.380;7.626;2024-03-22T02:08:49;16.50;;;7.50;;
84371;SDS011;74561;50.380;7.626;2024-03-22T02:11:14;17.17;;;7.93;;
84371;SDS011;74561;50.380;7.626;2024-03-22T02:13:39;14.70;;;7.80;;
84371;SDS011;74561;50.380;7.626;2024-03-22T02:16:05;13.93;;;7.27;;
84371;SDS011;74561;50.380;7.626;2024-03-22T02:18:30;17.08;;;8.32;;
84371;SDS011;74561;50.380;7.626;2024-03-22T02:20:56;16.67;;;7.73;;
84371;SDS011;74561;50.380;7.626;2024-03-22T02:23:43;20.33;;;8.68;;
84371;SDS011;74561;50.380;7.626;2024-03-22T02:26:07;17.17;;;8.38;;
84371;SDS011;74561;50.380;7.626;2024-03-22T02:28:33;13.25;;;7.18;;
84371;SDS011;74561;50.380;7.626;2024-03-22T02:30:59;16.17;;;7.30;;
84371;SDS011;74561;50.380;7.626;2024-03-22T02:33:25;18.58;;;8.07;;
84371;SDS011;74561;50.380;7.626;2024-03-22T02:35:50;13.70;;;7.28;;
84371;SDS011;74561;50.380;7.626;2024-03-22T02:38:16;18.50;;;8.05;;
84371;SDS011;74561;50.380;7.626;2024-03-22T02:40:45;18.98;;;7.45;;
84371;SDS011;74561;50.380;7.626;2024-03-22T02:43:13;14.85;;;7.65;;
84371;SDS011;74561;50.380;7.626;2024-03-22T02:45:39;16.60;;;7.77;;
84371;SDS011;74561;50.380;7.626;2024-03-22T02:48:04;20.45;;;8.23;;
84371;SDS011;74561;50.380;7.626;2024-03-22T02:50:35;18.20;;;7.28;;
84371;SDS011;74561;50.380;7.626;2024-03-22T02:53:00;18.40;;;8.55;;
84371;SDS011;74561;50.380;7.626;2024-03-22T02:55:26;20.58;;;7.97;;
84371;SDS011;74561;50.380;7.626;2024-03-22T02:57:51;18.43;;;8.37;;
84371;SDS011;74561;50.380;7.626;2024-03-22T03:00:17;16.93;;;8.60;;
84371;SDS011;74561;50.380;7.626;2024-03-22T03:02:43;18.83;;;8.32;;
84371;SDS011;74561;50.380;7.626;2024-03-22T03:05:08;16.88;;;8.30;;
84371;SDS011;74561;50.380;7.626;2024-03-22T03:07:34;17.27;;;7.93;;
84371;SDS011;74561;50.380;7.626;2024-03-22T03:10:00;15.70;;;7.23;;
84371;SDS011;74561;50.380;7.626;2024-03-22T03:12:25;16.20;;;7.93;;
84371;SDS011;74561;50.380;7.626;2024-03-22T03:14:50;15.25;;;7.50;;
84371;SDS011;74561;50.380;7.626;2024-03-22T03:17:16;16.90;;;7.70;;
84371;SDS011;74561;50.380;7.626;2024-03-22T03:19:41;17.83;;;7.30;;
84371;SDS011;74561;50.380;7.626;2024-03-22T03:22:06;17.80;;;7.63;;
84371;SDS011;74561;50.380;7.626;2024-03-22T03:24:32;17.63;;;7.43;;
84371;SDS011;74561;50.380;7.626;2024-03-22T03:26:57;16.05;;;7.68;;
84371;SDS011;74561;50.380;7.626;2024-03-22T03:29:22;19.03;;;8.60;;
84371;SDS011;74561;50.380;7.626;2024-03-22T03:31:48;17.40;;;7.63;;
84371;SDS011;74561;50.380;7.626;2024-03-22T03:34:14;16.58;;;6.93;;
84371;SDS011;74561;50.380;7.626;2024-03-22T03:36:40;16.10;;;6.85;;
84371;SDS011;74561;50.380;7.626;2024-03-22T03:39:05;15.93;;;7.10;;
84371;SDS011;74561;50.380;7.626;2024-03-22T03:41:30;17.53;;;8.10;;
84371;SDS011;74561;50.380;7.626;2024-03-22T03:43:56;14.97;;;7.27;;
84371;SDS011;74561;50.380;7.626;2024-03-22T03:46:21;14.27;;;6.53;;
84371;SDS011;74561;50.380;7.626;2024-03-22T03:48:46;15.67;;;7.93;;
84371;SDS011;74561;50.380;7.626;2024-03-22T03:51:12;17.63;;;7.15;;
84371;SDS011;74561;50.380;7.626;2024-03-22T03:53:37;17.63;;;8.20;;
84371;SDS011;74561;50.380;7.626;2024-03-22T03:56:02;17.20;;;7.50;;
84371;SDS011;74561;50.380;7.626;2024-03-22T03:58:28;15.75;;;7.70;;
84371;SDS011;74561;50.380;7.626;2024-03-22T04:00:53;16.30;;;6.60;;
84371;SDS011;74561;50.380;7.626;2024-03-22T04:03:18;17.40;;;7.23;;
84371;SDS011;74561;50.380;7.626;2024-03-22T04:05:44;14.10;;;6.85;;
84371;SDS011;74561;50.380;7.626;2024-03-22T04:08:09;14.53;;;7.40;;
84371;SDS011;74561;50.380;7.626;2024-03-22T04:10:34;15.30;;;7.20;;
84371;SDS011;74561;50.380;7.626;2024-03-22T04:13:00;16.37;;;7.50;;
84371;SDS011;74561;50.380;7.626;2024-03-22T04:15:25;14.67;;;6.80;;
84371;SDS011;74561;50.380;7.626;2024-03-22T04:17:52;14.05;;;6.85;;
84371;SDS011;74561;50.380;7.626;2024-03-22T04:20:18;13.55;;;6.85;;
84371;SDS011;74561;50.380;7.626;2024-03-22T04:22:43;18.60;;;7.13;;
84371;SDS011;74561;50.380;7.626;2024-03-22T04:25:08;13.50;;;6.83;;
84371;SDS011;74561;50.380;7.626;2024-03-22T04:27:37;18.00;;;9.02;;
84371;SDS011;74561;50.380;7.626;2024-03-22T04:32:30;17.77;;;9.10;;
84371;SDS011;74561;50.380;7.626;2024-03-22T04:34:55;22.13;;;10.50;;
84371;SDS011;74561;50.380;7.626;2024-03-22T04:37:21;18.73;;;9.93;;
84371;SDS011;74561;50.380;7.626;2024-03-22T04:39:46;24.75;;;10.40;;
84371;SDS011;74561;50.380;7.626;2024-03-22T04:42:11;29.00;;;12.80;;
84371;SDS011;74561;50.380;7.626;2024-03-22T04:44:38;24.45;;;11.65;;
84371;SDS011;74561;50.380;7.626;2024-03-22T04:47:03;29.07;;;11.73;;
84371;SDS011;74561;50.380;7.626;2024-03-22T04:49:29;22.40;;;10.82;;
84371;SDS011;74561;50.380;7.626;2024-03-22T04:51:55;22.30;;;10.90;;
84371;SDS011;74561;50.380;7.626;2024-03-22T04:54:20;20.15;;;9.18;;
84371;SDS011;74561;50.380;7.626;2024-03-22T04:56:45;18.57;;;9.00;;
84371;SDS011;74561;50.380;7.626;2024-03-22T04:59:10;21.50;;;9.80;;
84371;SDS011;74561;50.380;7.626;2024-03-22T05:01:36;21.47;;;10.37;;
84371;SDS011;74561;50.380;7.626;2024-03-22T05:04:01;16.93;;;8.23;;
84371;SDS011;74561;50.380;7.626;2024-03-22T05:06:26;17.90;;;8.07;;
84371;SDS011;74561;50.380;7.626;2024-03-22T05:08:52;15.70;;;7.00;;
84371;SDS011;74561;50.380;7.626;2024-03-22T05:11:17;25.63;;;11.70;;
84371;SDS011;74561;50.380;7.626;2024-03-22T05:13:42;30.73;;;10.67;;
84371;SDS011;74561;50.380;7.626;2024-03-22T05:16:08;20.90;;;8.30;;
84371;SDS011;74561;50.380;7.626;2024-03-22T05:18:33;20.27;;;8.93;;
84371;SDS011;74561;50.380;7.626;2024-03-22T05:20:58;27.23;;;11.00;;
84371;SDS011;74561;50.380;7.626;2024-03-22T05:23:24;16.75;;;8.52;;
84371;SDS011;74561;50.380;7.626;2024-03-22T05:25:49;12.95;;;6.50;;
84371;SDS011;74561;50.380;7.626;2024-03-22T05:28:15;15.13;;;6.43;;
84371;SDS011;74561;50.380;7.626;2024-03-22T05:30:40;13.70;;;7.38;;
84371;SDS011;74561;50.380;7.626;2024-03-22T05:33:05;13.33;;;6.60;;
84371;SDS011;74561;50.380;7.626;2024-03-22T05:35:31;14.60;;;7.43;;
84371;SDS011;74561;50.380;7.626;2024-03-22T05:37:56;18.40;;;6.77;;
84371;SDS011;74561;50.380;7.626;2024-03-22T05:40:22;18.87;;;7.57;;
84371;SDS011;74561;50.380;7.626;2024-03-22T05:42:48;16.20;;;7.00;;
84371;SDS011;74561;50.380;7.626;2024-03-22T05:45:13;16.57;;;7.63;;
84371;SDS011;74561;50.380;7.626;2024-03-22T05:47:38;11.87;;;6.60;;
84371;SDS011;74561;50.380;7.626;2024-03-22T05:50:04;15.40;;;6.73;;
84371;SDS011;74561;50.380;7.626;2024-03-22T05:52:32;15.98;;;7.07;;
84371;SDS011;74561;50.380;7.626;2024-03-22T05:54:58;14.55;;;6.45;;
84371;SDS011;74561;50.380;7.626;2024-03-22T05:57:23;14.88;;;7.20;;
84371;SDS011;74561;50.380;7.626;2024-03-22T05:59:49;16.58;;;6.95;;
84371;SDS011;74561;50.380;7.626;2024-03-22T06:02:14;13.47;;;6.63;;
84371;SDS011;74561;50.380;7.626;2024-03-22T06:04:40;16.52;;;6.78;;
84371;SDS011;74561;50.380;7.626;2024-03-22T06:07:06;15.45;;;6.60;;
84371;SDS011;74561;50.380;7.626;2024-03-22T06:09:31;15.43;;;7.10;;
84371;SDS011;74561;50.380;7.626;2024-03-22T06:12:02;16.88;;;6.78;;
84371;SDS011;74561;50.380;7.626;2024-03-22T06:14:29;13.65;;;6.60;;
84371;SDS011;74561;50.380;7.626;2024-03-22T06:16:54;14.63;;;6.23;;
84371;SDS011;74561;50.380;7.626;2024-03-22T06:19:19;13.20;;;6.53;;
84371;SDS011;74561;50.380;7.626;2024-03-22T06:21:45;15.07;;;7.10;;
84371;SDS011;74561;50.380;7.626;2024-03-22T06:24:10;14.87;;;7.33;;
84371;SDS011;74561;50.380;7.626;2024-03-22T06:26:36;17.30;;;6.80;;
84371;SDS011;74561;50.380;7.626;2024-03-22T06:29:01;15.03;;;6.83;;
84371;SDS011;74561;50.380;7.626;2024-03-22T06:31:27;15.48;;;6.90;;
84371;SDS011;74561;50.380;7.626;2024-03-22T06:33:52;12.77;;;6.17;;
84371;SDS011;74561;50.380;7.626;2024-03-22T06:36:18;11.38;;;6.20;;
84371;SDS011;74561;50.380;7.626;2024-03-22T06:38:43;12.40;;;5.77;;
84371;SDS011;74561;50.380;7.626;2024-03-22T06:41:09;13.33;;;6.30;;
84371;SDS011;74561;50.380;7.626;2024-03-22T06:43:34;11.52;;;5.82;;
84371;SDS011;74561;50.380;7.626;2024-03-22T06:45:59;13.67;;;6.50;;
84371;SDS011;74561;50.380;7.626;2024-03-22T06:48:25;10.37;;;5.87;;
84371;SDS011;74561;50.380;7.626;2024-03-22T06:50:50;11.37;;;5.57;;
84371;SDS011;74561;50.380;7.626;2024-03-22T06:53:15;10.77;;;5.80;;
84371;SDS011;74561;50.380;7.626;2024-03-22T06:55:41;11.25;;;5.25;;
84371;SDS011;74561;50.380;7.626;2024-03-22T06:58:06;13.33;;;6.20;;
84371;SDS011;74561;50.380;7.626;2024-03-22T07:00:32;10.07;;;5.03;;
84371;SDS011;74561;50.380;7.626;2024-03-22T07:03:01;11.57;;;5.45;;
84371;SDS011;74561;50.380;7.626;2024-03-22T07:05:28;9.07;;;5.18;;
84371;SDS011;74561;50.380;7.626;2024-03-22T07:07:56;12.38;;;5.07;;
84371;SDS011;74561;50.380;7.626;2024-03-22T07:10:23;9.90;;;4.85;;
84371;SDS011;74561;50.380;7.626;2024-03-22T07:12:53;9.88;;;5.10;;
84371;SDS011;74561;50.380;7.626;2024-03-22T07:15:19;10.20;;;5.05;;
84371;SDS011;74561;50.380;7.626;2024-03-22T07:17:44;9.38;;;5.28;;
84371;SDS011;74561;50.380;7.626;2024-03-22T07:20:10;12.10;;;5.60;;
84371;SDS011;74561;50.380;7.626;2024-03-22T07:22:39;10.38;;;5.55;;
84371;SDS011;74561;50.380;7.626;2024-03-22T07:25:05;9.77;;;5.18;;
84371;SDS011;74561;50.380;7.626;2024-03-22T07:27:31;13.45;;;5.47;;
84371;SDS011;74561;50.380;7.626;2024-03-22T07:29:57;10.90;;;5.30;;
84371;SDS011;74561;50.380;7.626;2024-03-22T07:32:22;8.35;;;4.75;;
84371;SDS011;74561;50.380;7.626;2024-03-22T07:34:48;11.43;;;5.25;;
84371;SDS011;74561;50.380;7.626;2024-03-22T07:37:14;11.05;;;5.93;;
84371;SDS011;74561;50.380;7.626;2024-03-22T07:39:43;12.60;;;5.80;;
84371;SDS011;74561;50.380;7.626;2024-03-22T07:42:08;12.80;;;6.35;;
84371;SDS011;74561;50.380;7.626;2024-03-22T07:44:34;15.65;;;7.45;;
84371;SDS011;74561;50.380;7.626;2024-03-22T07:47:00;10.65;;;5.32;;
84371;SDS011;74561;50.380;7.626;2024-03-22T07:49:25;15.80;;;7.65;;
84371;SDS011;74561;50.380;7.626;2024-03-22T07:51:51;13.43;;;7.63;;
84371;SDS011;74561;50.380;7.626;2024-03-22T07:54:18;12.10;;;5.85;;
84371;SDS011;74561;50.380;7.626;2024-03-22T07:56:43;11.38;;;5.30;;
84371;SDS011;74561;50.380;7.626;2024-03-22T07:59:09;10.23;;;5.63;;
84371;SDS011;74561;50.380;7.626;2024-03-22T08:01:34;9.73;;;5.37;;
84371;SDS011;74561;50.380;7.626;2024-03-22T08:03:59;10.13;;;4.75;;
84371;SDS011;74561;50.380;7.626;2024-03-22T08:06:26;8.77;;;4.23;;
84371;SDS011;74561;50.380;7.626;2024-03-22T08:08:51;9.02;;;4.30;;
84371;SDS011;74561;50.380;7.626;2024-03-22T08:11:16;10.07;;;4.20;;
84371;SDS011;74561;50.380;7.626;2024-03-22T08:13:42;7.03;;;4.30;;
84371;SDS011;74561;50.380;7.626;2024-03-22T08:16:07;6.00;;;3.60;;
84371;SDS011;74561;50.380;7.626;2024-03-22T08:18:32;8.30;;;3.77;;
84371;SDS011;74561;50.380;7.626;2024-03-22T08:20:58;7.17;;;3.73;;
84371;SDS011;74561;50.380;7.626;2024-03-22T08:23:24;8.57;;;4.32;;
84371;SDS011;74561;50.380;7.626;2024-03-22T08:25:49;6.57;;;3.90;;
84371;SDS011;74561;50.380;7.626;2024-03-22T08:28:16;7.25;;;3.90;;
84371;SDS011;74561;50.380;7.626;2024-03-22T08:30:42;6.78;;;3.50;;
84371;SDS011;74561;50.380;7.626;2024-03-22T08:33:09;6.07;;;3.58;;
84371;SDS011;74561;50.380;7.626;2024-03-22T08:35:35;7.63;;;4.13;;
84371;SDS011;74561;50.380;7.626;2024-03-22T08:38:00;6.45;;;3.45;;
84371;SDS011;74561;50.380;7.626;2024-03-22T08:40:29;7.65;;;3.92;;
84371;SDS011;74561;50.380;7.626;2024-03-22T08:42:54;6.38;;;3.75;;
84371;SDS011;74561;50.380;7.626;2024-03-22T08:45:20;6.55;;;3.70;;
84371;SDS011;74561;50.380;7.626;2024-03-22T08:47:45;6.30;;;3.50;;
84371;SDS011;74561;50.380;7.626;2024-03-22T08:50:11;5.40;;;3.50;;
84371;SDS011;74561;50.380;7.626;2024-03-22T08:52:36;7.50;;;3.75;;
84371;SDS011;74561;50.380;7.626;2024-03-22T08:55:03;6.45;;;3.63;;
84371;SDS011;74561;50.380;7.626;2024-03-22T08:57:29;6.25;;;3.50;;
84371;SDS011;74561;50.380;7.626;2024-03-22T08:59:54;7.03;;;3.47;;
84371;SDS011;74561;50.380;7.626;2024-03-22T09:02:20;6.18;;;3.20;;
84371;SDS011;74561;50.380;7.626;2024-03-22T09:04:46;5.47;;;3.45;;
84371;SDS011;74561;50.380;7.626;2024-03-22T09:07:11;6.40;;;3.38;;
84371;SDS011;74561;50.380;7.626;2024-03-22T09:09:37;7.40;;;3.70;;
84371;SDS011;74561;50.380;7.626;2024-03-22T09:12:02;8.57;;;4.30;;
84371;SDS011;74561;50.380;7.626;2024-03-22T09:14:28;8.18;;;4.20;;
84371;SDS011;74561;50.380;7.626;2024-03-22T09:16:53;9.73;;;4.27;;
84371;SDS011;74561;50.380;7.626;2024-03-22T09:19:19;6.73;;;3.90;;
84371;SDS011;74561;50.380;7.626;2024-03-22T09:21:44;6.37;;;4.27;;
84371;SDS011;74561;50.380;7.626;2024-03-22T09:24:09;8.63;;;4.03;;
84371;SDS011;74561;50.380;7.626;2024-03-22T09:26:35;6.57;;;4.10;;
84371;SDS011;74561;50.380;7.626;2024-03-22T09:29:02;7.80;;;4.53;;
84371;SDS011;74561;50.380;7.626;2024-03-22T09:31:28;6.40;;;4.20;;
84371;SDS011;74561;50.380;7.626;2024-03-22T09:33:55;7.90;;;4.28;;
84371;SDS011;74561;50.380;7.626;2024-03-22T09:36:21;7.67;;;4.87;;
84371;SDS011;74561;50.380;7.626;2024-03-22T09:38:46;7.55;;;4.75;;
84371;SDS011;74561;50.380;7.626;2024-03-22T09:41:12;7.03;;;4.70;;
84371;SDS011;74561;50.380;7.626;2024-03-22T09:43:39;8.35;;;4.88;;
84371;SDS011;74561;50.380;7.626;2024-03-22T09:46:04;7.97;;;5.10;;
84371;SDS011;74561;50.380;7.626;2024-03-22T09:48:30;9.27;;;5.10;;
84371;SDS011;74561;50.380;7.626;2024-03-22T09:50:57;10.48;;;5.93;;
84371;SDS011;74561;50.380;7.626;2024-03-22T09:53:22;9.83;;;5.77;;
84371;SDS011;74561;50.380;7.626;2024-03-22T09:55:51;8.23;;;5.27;;
84371;SDS011;74561;50.380;7.626;2024-03-22T09:58:17;11.13;;;6.40;;
84371;SDS011;74561;50.380;7.626;2024-03-22T10:00:43;8.68;;;5.38;;
84371;SDS011;74561;50.380;7.626;2024-03-22T10:03:12;8.55;;;5.75;;
84371;SDS011;74561;50.380;7.626;2024-03-22T10:05:37;10.65;;;5.93;;
84371;SDS011;74561;50.380;7.626;2024-03-22T10:08:03;8.90;;;5.37;;
84371;SDS011;74561;50.380;7.626;2024-03-22T10:10:30;11.00;;;5.60;;
84371;SDS011;74561;50.380;7.626;2024-03-22T10:12:56;10.90;;;6.13;;
84371;SDS011;74561;50.380;7.626;2024-03-22T10:15:23;11.53;;;5.73;;
84371;SDS011;74561;50.380;7.626;2024-03-22T10:17:48;11.55;;;5.78;;
84371;SDS011;74561;50.380;7.626;2024-03-22T10:20:14;9.97;;;5.97;;
84371;SDS011;74561;50.380;7.626;2024-03-22T10:22:42;11.23;;;6.23;;
84371;SDS011;74561;50.380;7.626;2024-03-22T10:25:09;9.27;;;5.90;;
84371;SDS011;74561;50.380;7.626;2024-03-22T10:27:37;11.30;;;6.53;;
84371;SDS011;74561;50.380;7.626;2024-03-22T10:30:04;11.00;;;5.93;;
84371;SDS011;74561;50.380;7.626;2024-03-22T10:32:36;9.02;;;5.82;;
84371;SDS011;74561;50.380;7.626;2024-03-22T10:35:04;10.23;;;6.30;;
84371;SDS011;74561;50.380;7.626;2024-03-22T10:37:32;13.98;;;6.93;;
84371;SDS011;74561;50.380;7.626;2024-03-22T10:40:01;10.40;;;6.25;;
84371;SDS011;74561;50.380;7.626;2024-03-22T10:42:32;10.95;;;6.47;;
84371;SDS011;74561;50.380;7.626;2024-03-22T10:44:57;9.80;;;5.60;;
84371;SDS011;74561;50.380;7.626;2024-03-22T10:47:23;10.57;;;6.30;;
84371;SDS011;74561;50.380;7.626;2024-03-22T10:49:49;9.77;;;5.78;;
84371;SDS011;74561;50.380;7.626;2024-03-22T10:52:18;10.50;;;6.97;;
84371;SDS011;74561;50.380;7.626;2024-03-22T10:54:43;12.98;;;7.10;;
84371;SDS011;74561;50.380;7.626;2024-03-22T10:57:11;18.23;;;8.00;;
84371;SDS011;74561;50.380;7.626;2024-03-22T10:59:37;13.63;;;8.18;;
84371;SDS011;74561;50.380;7.626;2024-03-22T11:02:06;15.05;;;7.80;;
84371;SDS011;74561;50.380;7.626;2024-03-22T11:04:32;11.50;;;7.30;;
84371;SDS011;74561;50.380;7.626;2024-03-22T11:06:57;13.43;;;7.22;;
84371;SDS011;74561;50.380;7.626;2024-03-22T11:09:24;12.90;;;7.95;;
84371;SDS011;74561;50.380;7.626;2024-03-22T11:11:54;14.18;;;8.07;;
84371;SDS011;74561;50.380;7.626;2024-03-22T11:14:20;13.73;;;7.75;;
84371;SDS011;74561;50.380;7.626;2024-03-22T11:16:46;13.32;;;8.15;;
84371;SDS011;74561;50.380;7.626;2024-03-22T11:19:11;14.57;;;8.38;;
84371;SDS011;74561;50.380;7.626;2024-03-22T11:21:37;15.10;;;8.07;;
84371;SDS011;74561;50.380;7.626;2024-03-22T11:24:03;17.67;;;7.95;;
84371;SDS011;74561;50.380;7.626;2024-03-22T11:26:29;15.45;;;8.20;;
84371;SDS011;74561;50.380;7.626;2024-03-22T11:28:55;14.13;;;8.33;;
84371;SDS011;74561;50.380;7.626;2024-03-22T11:31:20;14.73;;;7.82;;
84371;SDS011;74561;50.380;7.626;2024-03-22T11:33:50;15.25;;;8.50;;
84371;SDS011;74561;50.380;7.626;2024-03-22T11:36:16;14.27;;;7.72;;
84371;SDS011;74561;50.380;7.626;2024-03-22T11:38:41;13.87;;;8.73;;
84371;SDS011;74561;50.380;7.626;2024-03-22T11:41:06;14.33;;;8.00;;
84371;SDS011;74561;50.380;7.626;2024-03-22T11:43:32;15.93;;;8.93;;
84371;SDS011;74561;50.380;7.626;2024-03-22T11:45:57;15.38;;;7.97;;
84371;SDS011;74561;50.380;7.626;2024-03-22T11:48:23;13.85;;;8.45;;
84371;SDS011;74561;50.380;7.626;2024-03-22T11:50:49;14.55;;;7.65;;
84371;SDS011;74561;50.380;7.626;2024-03-22T11:53:15;15.40;;;8.82;;
84371;SDS011;74561;50.380;7.626;2024-03-22T11:55:41;14.07;;;8.98;;
84371;SDS011;74561;50.380;7.626;2024-03-22T11:58:08;14.17;;;8.40;;
84371;SDS011;74561;50.380;7.626;2024-03-22T12:00:34;15.50;;;8.60;;
84371;SDS011;74561;50.380;7.626;2024-03-22T12:03:00;12.20;;;7.70;;
84371;SDS011;74561;50.380;7.626;2024-03-22T12:05:25;15.80;;;8.60;;
84371;SDS011;74561;50.380;7.626;2024-03-22T12:07:51;13.38;;;7.95;;
84371;SDS011;74561;50.380;7.626;2024-03-22T12:10:16;13.63;;;7.90;;
84371;SDS011;74561;50.380;7.626;2024-03-22T12:12:42;13.93;;;8.25;;
84371;SDS011;74561;50.380;7.626;2024-03-22T12:15:07;13.87;;;8.13;;
84371;SDS011;74561;50.380;7.626;2024-03-22T12:17:33;13.43;;;7.43;;
84371;SDS011;74561;50.380;7.626;2024-03-22T12:20:01;14.77;;;8.00;;
84371;SDS011;74561;50.380;7.626;2024-03-22T12:22:26;11.25;;;7.93;;
84371;SDS011;74561;50.380;7.626;2024-03-22T12:24:51;12.53;;;8.20;;
84371;SDS011;74561;50.380;7.626;2024-03-22T12:27:17;12.47;;;7.63;;
84371;SDS011;74561;50.380;7.626;2024-03-22T12:29:42;9.90;;;7.13;;
84371;SDS011;74561;50.380;7.626;2024-03-22T12:32:08;13.32;;;6.97;;
84371;SDS011;74561;50.380;7.626;2024-03-22T12:34:35;11.68;;;6.47;;
84371;SDS011;74561;50.380;7.626;2024-03-22T12:37:00;10.73;;;6.23;;
84371;SDS011;74561;50.380;7.626;2024-03-22T12:39:25;12.40;;;6.20;;
84371;SDS011;74561;50.380;7.626;2024-03-22T12:41:51;10.88;;;6.40;;
84371;SDS011;74561;50.380;7.626;2024-03-22T12:44:16;11.75;;;7.22;;
84371;SDS011;74561;50.380;7.626;2024-03-22T12:46:42;12.48;;;7.70;;
84371;SDS011;74561;50.380;7.626;2024-03-22T12:49:09;10.68;;;6.90;;
84371;SDS011;74561;50.380;7.626;2024-03-22T12:51:35;12.50;;;7.18;;
84371;SDS011;74561;50.380;7.626;2024-03-22T12:54:01;11.43;;;6.95;;
84371;SDS011;74561;50.380;7.626;2024-03-22T12:56:26;15.23;;;7.47;;
84371;SDS011;74561;50.380;7.626;2024-03-22T12:58:51;11.63;;;6.80;;
84371;SDS011;74561;50.380;7.626;2024-03-22T13:01:17;12.60;;;6.73;;
84371;SDS011;74561;50.380;7.626;2024-03-22T13:03:42;10.80;;;6.83;;
84371;SDS011;74561;50.380;7.626;2024-03-22T13:06:08;13.63;;;6.50;;
84371;SDS011;74561;50.380;7.626;2024-03-22T13:08:35;11.40;;;6.15;;
84371;SDS011;74561;50.380;7.626;2024-03-22T13:11:00;13.00;;;6.43;;
84371;SDS011;74561;50.380;7.626;2024-03-22T13:13:26;9.20;;;5.85;;
84371;SDS011;74561;50.380;7.626;2024-03-22T13:15:51;10.65;;;6.07;;
84371;SDS011;74561;50.380;7.626;2024-03-22T13:18:17;12.23;;;6.70;;
84371;SDS011;74561;50.380;7.626;2024-03-22T13:20:42;10.75;;;5.72;;
84371;SDS011;74561;50.380;7.626;2024-03-22T13:23:08;10.60;;;5.80;;
84371;SDS011;74561;50.380;7.626;2024-03-22T13:25:36;10.70;;;6.30;;
84371;SDS011;74561;50.380;7.626;2024-03-22T13:28:02;10.90;;;6.25;;
84371;SDS011;74561;50.380;7.626;2024-03-22T13:30:30;12.02;;;6.85;;
84371;SDS011;74561;50.380;7.626;2024-03-22T13:32:55;10.80;;;6.70;;
84371;SDS011;74561;50.380;7.626;2024-03-22T13:35:21;10.32;;;5.85;;
84371;SDS011;74561;50.380;7.626;2024-03-22T13:37:46;13.23;;;6.50;;
84371;SDS011;74561;50.380;7.626;2024-03-22T13:40:12;12.20;;;6.50;;
84371;SDS011;74561;50.380;7.626;2024-03-22T13:42:37;10.70;;;6.00;;
84371;SDS011;74561;50.380;7.626;2024-03-22T13:45:02;11.33;;;6.90;;
84371;SDS011;74561;50.380;7.626;2024-03-22T13:47:28;12.02;;;6.28;;
84371;SDS011;74561;50.380;7.626;2024-03-22T13:49:53;12.18;;;6.85;;
84371;SDS011;74561;50.380;7.626;2024-03-22T13:52:19;11.68;;;6.20;;
84371;SDS011;74561;50.380;7.626;2024-03-22T13:54:45;12.23;;;6.15;;
84371;SDS011;74561;50.380;7.626;2024-03-22T13:57:11;11.20;;;6.13;;
84371;SDS011;74561;50.380;7.626;2024-03-22T13:59:36;11.93;;;6.63;;
84371;SDS011;74561;50.380;7.626;2024-03-22T14:02:02;11.73;;;5.85;;
84371;SDS011;74561;50.380;7.626;2024-03-22T14:04:28;9.05;;;5.18;;
84371;SDS011;74561;50.380;7.626;2024-03-22T14:06:54;8.93;;;5.65;;
84371;SDS011;74561;50.380;7.626;2024-03-22T14:09:19;10.13;;;5.27;;
84371;SDS011;74561;50.380;7.626;2024-03-22T14:11:44;8.77;;;4.70;;
84371;SDS011;74561;50.380;7.626;2024-03-22T14:14:12;8.20;;;4.68;;
84371;SDS011;74561;50.380;7.626;2024-03-22T14:16:38;8.38;;;5.07;;
84371;SDS011;74561;50.380;7.626;2024-03-22T14:19:04;8.13;;;4.82;;
84371;SDS011;74561;50.380;7.626;2024-03-22T14:21:29;8.03;;;4.50;;
84371;SDS011;74561;50.380;7.626;2024-03-22T14:23:54;8.10;;;4.37;;
84371;SDS011;74561;50.380;7.626;2024-03-22T14:26:20;6.43;;;4.30;;
84371;SDS011;74561;50.380;7.626;2024-03-22T14:28:46;8.77;;;4.93;;